ベルリン・テーゲル国際空港の過去48時間の天気

ベルリン・テーゲル国際空港 (Berlin-Tegel)

現在時刻: 1/23 04:26 CET (1/23 03:26 UTC) 以下の時間は現地時間です。

過去48時間のMETAR気象情報
時間 風向 風速(m/s) 視程 気温(℃) 湿度(%) 気圧(hPa) 天気現象
23 03:50 不定 1 10km以上 0 100 1034
23 03:20 西南西 1 10km以上 -1 100 1034
23 02:50 西 1 10km以上 -1 100 1034 散在した霧
23 02:20 不定 1 10km以上 -1 100 1034
23 01:50 不定 1 10km以上 0 100 1034
23 01:20 西 1 10km以上 1 93 1034
23 00:50 西南西 2 10km以上 0 100 1034
23 00:20 西 1 10km以上 1 93 1034
22 23:50 西北西 2 10km以上 2 87 1034
22 23:20 西北西 2 10km以上 3 87 1034
22 22:50 西 3 10km以上 2 87 1034
22 22:20 西 1 10km以上 4 81 1034
22 21:50 西 2 10km以上 4 87 1034
22 21:20 西北西 2 10km以上 5 81 1033
22 20:50 西 3 10km以上 5 81 1033
22 20:20 西 3 10km以上 5 81 1033
22 19:50 西北西 2 10km以上 6 76 1033
22 19:20 北西 3 10km以上 6 76 1033
22 18:50 西北西 2 10km以上 6 76 1032
22 18:20 西北西 2 10km以上 6 76 1032
22 17:50 西北西 3 10km以上 6 81 1032
22 17:20 西北西 3 10km以上 6 76 1031
22 16:50 北西 3 10km以上 6 76 1031
22 16:20 北西 4 10km以上 6 81 1031
22 15:50 北西 5 10km以上 6 81 1030
22 15:20 北西 3 10km以上 6 87 1030
22 14:50 西北西 3 10km以上 6 87 1030
22 14:20 西北西 3 10km以上 6 93 1030
22 13:50 西北西 4 10km以上 6 93 1030
22 13:20 西北西 4 8000m 5 100 1030
22 12:50 西 5 6000m 5 93 1030
22 12:20 西 4 4800m 5 93 1030 弱い霧雨
22 11:50 西 5 4500m 4 100 1030 弱い霧雨
22 11:20 西 5 3300m 4 100 1030 弱い霧雨
22 10:50 西 5 3000m 4 100 1030 弱い霧雨
22 10:20 西 6 3000m 4 100 1030 弱い霧雨
22 09:50 西 5 3000m 4 100 1030 弱い霧雨
22 09:20 西 5 3500m 4 93 1030 弱い霧雨
22 08:50 西 6 4000m 3 100 1030 もや
22 08:20 西 5 3500m 3 100 1030 もや
22 07:50 西 5 3000m 3 100 1030 もや
22 07:20 西 4 2500m 3 100 1031 弱い霧雨
22 06:50 西 5 3500m 3 100 1031 弱い霧雨
22 06:20 西 6 4000m 3 93 1030 もや
22 05:50 西 6 4000m 3 93 1031 もや
22 05:20 西南西 6 4500m 3 93 1030 もや
22 04:50 西 5 6000m 3 93 1031
22 04:20 西 5 7000m 3 87 1031
22 03:50 西 5 7000m 3 87 1031
22 03:20 西南西 5 7000m 3 87 1032
22 02:50 西 5 7000m 3 87 1032
22 02:20 西 5 7000m 3 87 1033
22 01:50 西 5 8000m 3 87 1033
22 01:20 西南西 5 10km以上 3 87 1033
22 00:50 西南西 5 10km以上 3 81 1033
22 00:20 西南西 5 10km以上 3 81 1034
21 23:50 西 4 10km以上 3 81 1034
21 23:20 西 5 10km以上 3 81 1035
21 22:50 西 6 10km以上 3 81 1035
21 22:20 西 4 10km以上 3 81 1035
21 21:50 西 5 10km以上 2 87 1035
21 21:20 西 5 10km以上 2 87 1035
21 20:50 西 4 10km以上 0 93 1036
21 20:20 西 3 10km以上 1 86 1036
21 19:50 西 4 10km以上 1 86 1036
21 19:20 西 5 10km以上 2 87 1036
21 18:50 西南西 5 10km以上 3 81 1036
21 18:20 西南西 4 10km以上 3 81 1036
21 17:50 西南西 4 10km以上 3 81 1036
21 17:20 西 4 10km以上 3 75 1036
21 16:50 西南西 5 10km以上 4 75 1037
21 16:20 西南西 5 10km以上 4 75 1037
21 15:50 西 5 10km以上 5 70 1037
21 15:20 西 5 10km以上 6 70 1037
21 14:50 西 4 10km以上 6 70 1038
21 14:20 西 5 10km以上 6 70 1038
21 13:50 西 7 10km以上 6 65 1038
21 13:20 西 6 10km以上 6 65 1039
21 12:50 西 6 10km以上 5 70 1039
21 12:20 西 6 10km以上 5 70 1039
21 11:50 西南西 6 10km以上 4 75 1039
21 11:20 西南西 6 10km以上 4 75 1039
21 10:50 西南西 6 10km以上 4 75 1040
21 10:20 西南西 6 10km以上 3 81 1040
21 09:50 西南西 5 10km以上 2 87 1040
21 09:20 西南西 5 10km以上 1 86 1040
21 08:50 西南西 5 10km以上 1 86 1040
21 08:20 西 4 10km以上 0 93 1040
21 07:50 西南西 5 10km以上 1 86 1040
21 07:20 西南西 4 10km以上 0 93 1040
21 06:50 西南西 5 10km以上 0 93 1040
21 06:20 西南西 5 10km以上 0 93 1040
21 05:50 西南西 3 10km以上 0 93 1041
21 05:20 西南西 4 10km以上 0 93 1041
21 04:50 西南西 3 10km以上 1 86 1041
EDDT 230250Z VRB01KT 9999 BKN028 M00/M00 Q1034
EDDT 230220Z 25002KT 9999 BKN028 M01/M01 Q1034
EDDT 230150Z 26002KT 9999 BCFG FEW028 M01/M01 Q1034
EDDT 230120Z VRB01KT 9999 FEW027 M01/M01 Q1034
EDDT 230050Z VRB01KT 9999 FEW027 00/M00 Q1034
EDDT 230020Z 28002KT 9999 SCT027 01/00 Q1034
EDDT 222350Z 24003KT 9999 SCT027 00/M00 Q1034
EDDT 222320Z 27002KT 9999 SCT027 01/00 Q1034
EDDT 222250Z 30003KT 270V330 9999 BKN027 02/00 Q1034
EDDT 222220Z 29003KT 270V340 9999 BKN026 03/01 Q1034
EDDT 222150Z 26005KT 9999 BKN026 02/00 Q1034 NOSIG
EDDT 222120Z 26002KT 9999 BKN027 04/01 Q1034 NOSIG
EDDT 222050Z 28003KT 9999 BKN027 04/02 Q1034 NOSIG
EDDT 222020Z 29004KT 9999 BKN027 05/02 Q1033 NOSIG
EDDT 221950Z 28005KT 9999 BKN028 05/02 Q1033 NOSIG
EDDT 221920Z 27005KT 9999 BKN029 05/02 Q1033 NOSIG
EDDT 221850Z 29004KT 9999 BKN027 06/02 Q1033 NOSIG
EDDT 221820Z 31005KT 9999 BKN024 06/02 Q1033 NOSIG
EDDT 221750Z 30004KT 270V350 9999 BKN023 06/02 Q1032 NOSIG
EDDT 221720Z 29004KT 260V320 9999 BKN023 06/02 Q1032 NOSIG
EDDT 221650Z 30005KT 270V330 9999 BKN024 06/03 Q1032 NOSIG
EDDT 221620Z 30006KT 260V350 9999 BKN023 06/02 Q1031 NOSIG
EDDT 221550Z 31006KT 270V340 9999 BKN020 06/02 Q1031 NOSIG
EDDT 221520Z 31007KT 270V360 9999 BKN019 06/03 Q1031 NOSIG
EDDT 221450Z 32009KT 290V350 9999 FEW017 BKN020 06/03 Q1030 NOSIG
EDDT 221420Z 31006KT 270V340 9999 FEW014 BKN017 06/04 Q1030 NOSIG
EDDT 221350Z 29006KT 260V320 9999 SCT012 BKN018 06/04 Q1030 NOSIG
EDDT 221320Z 29006KT 260V320 9999 BKN009 BKN018 06/05 Q1030 BECMG BKN011
EDDT 221250Z 29008KT 260V320 9999 BKN008 BKN030 06/05 Q1030 BECMG BKN011
EDDT 221220Z 29008KT 250V320 8000 BKN006 05/05 Q1030 BECMG BKN011
EDDT 221150Z 28009KT 250V310 6000 BKN004 05/04 Q1030 BECMG BKN006
EDDT 221120Z 28008KT 4800 -DZ BKN004 05/04 Q1030 BECMG 5000 BKN006
EDDT 221050Z 28010KT 4500 -DZ BKN004 04/04 Q1030 BECMG 5000 BKN006
EDDT 221020Z 27010KT 3300 -DZ BKN003 04/04 Q1030 NOSIG
EDDT 220950Z 28009KT 3000 -DZ BKN003 04/04 Q1030 NOSIG
EDDT 220920Z 27011KT 3000 -DZ BKN003 04/04 Q1030 NOSIG
EDDT 220850Z 27010KT 3000 -DZ BKN004 04/04 Q1030 BECMG 6000 BKN007
EDDT 220820Z 28010KT 240V300 3500 -DZ BKN004 04/03 Q1030 BECMG 6000
EDDT 220750Z 26012KT 4000 BR BKN004 03/03 Q1030 BECMG 6000
EDDT 220720Z 28010KT 3500 BR BKN004 03/03 Q1030 NOSIG
EDDT 220650Z 27010KT 3000 BR BKN003 03/03 Q1030 NOSIG
EDDT 220620Z 27008KT 210V320 2500 -DZ BKN003 03/03 Q1031 TEMPO 1400
EDDT 220550Z 28009KT 250V310 3500 -DZ BKN004 03/03 Q1031 TEMPO 2500 -DZ BKN006
EDDT 220520Z 27011KT 4000 BR SCT004 BKN005 03/02 Q1030 TEMPO 2500 -DZ BKN004
EDDT 220450Z 28011KT 4000 BR BKN005 03/02 Q1031 TEMPO 2500 -DZ BKN004
EDDT 220420Z 25012KT 4500 BR BKN006 03/02 Q1030 TEMPO BKN004
EDDT 220350Z 27009KT 240V300 6000 BKN007 03/02 Q1031 NOSIG
EDDT 220320Z 26010KT 7000 BKN008 03/01 Q1031
EDDT 220250Z 26010KT 7000 BKN008 03/01 Q1031
EDDT 220220Z 25009KT 7000 BKN009 03/01 Q1032
EDDT 220150Z 26010KT 7000 BKN009 03/01 Q1032
EDDT 220120Z 28010KT 7000 BKN009 03/01 Q1033
EDDT 220050Z 27009KT 8000 FEW008 BKN010 03/01 Q1033
EDDT 220020Z 25009KT 9999 BKN010 03/01 Q1033
EDDT 212350Z 25010KT 9999 BKN012 03/00 Q1033
EDDT 212320Z 25009KT 9999 BKN012 03/00 Q1034
EDDT 212250Z 26008KT 9999 BKN013 03/00 Q1034
EDDT 212220Z 28009KT 250V310 9999 BKN013 03/00 Q1035
EDDT 212150Z 28011KT 9999 BKN013 03/00 Q1035 NOSIG
EDDT 212120Z 27008KT 9999 BKN015 03/M00 Q1035 BECMG BKN013
EDDT 212050Z 26009KT 9999 BKN017 02/M00 Q1035 BECMG BKN013
EDDT 212020Z 26009KT 9999 BKN019 02/M00 Q1035 BECMG BKN013
EDDT 211950Z 26007KT 9999 BKN023 00/M01 Q1036 BECMG BKN013
EDDT 211920Z 27006KT CAVOK 01/M01 Q1036 BECMG BKN013
EDDT 211850Z 26007KT CAVOK 01/M01 Q1036 NOSIG
EDDT 211820Z 26009KT CAVOK 02/M00 Q1036 NOSIG
EDDT 211750Z 25010KT CAVOK 03/M00 Q1036 NOSIG
EDDT 211720Z 24007KT CAVOK 03/M00 Q1036 NOSIG
EDDT 211650Z 24008KT CAVOK 03/M00 Q1036 NOSIG
EDDT 211620Z 26007KT CAVOK 03/M01 Q1036 NOSIG
EDDT 211550Z 25009KT CAVOK 04/M00 Q1037 NOSIG
EDDT 211520Z 25009KT CAVOK 04/00 Q1037 NOSIG
EDDT 211450Z 26010KT CAVOK 05/00 Q1037 NOSIG
EDDT 211420Z 28009KT 250V310 CAVOK 06/01 Q1037 NOSIG
EDDT 211350Z 27008KT CAVOK 06/01 Q1038 NOSIG
EDDT 211320Z 26010KT CAVOK 06/01 Q1038 NOSIG
EDDT 211250Z 26013KT CAVOK 06/00 Q1038 NOSIG
EDDT 211220Z 26011KT 240V300 CAVOK 06/00 Q1039 NOSIG
EDDT 211150Z 26012KT CAVOK 05/M00 Q1039 NOSIG
EDDT 211120Z 26012KT CAVOK 05/M00 Q1039 NOSIG
EDDT 211050Z 25012KT CAVOK 04/M00 Q1039 NOSIG
EDDT 211020Z 25012KT CAVOK 04/00 Q1039 NOSIG
EDDT 210950Z 25011KT CAVOK 04/M00 Q1040 NOSIG
EDDT 210920Z 25011KT CAVOK 03/M00 Q1040 NOSIG
EDDT 210850Z 25010KT CAVOK 02/M00 Q1040 NOSIG
EDDT 210820Z 25009KT CAVOK 01/M01 Q1040 NOSIG
EDDT 210750Z 25009KT CAVOK 01/M01 Q1040 NOSIG
EDDT 210720Z 26007KT CAVOK 00/M01 Q1040 NOSIG
EDDT 210650Z 24009KT CAVOK 01/M01 Q1040 NOSIG
EDDT 210620Z 25008KT CAVOK M00/M01 Q1040 NOSIG
EDDT 210550Z 25009KT CAVOK 00/M01 Q1040 NOSIG
EDDT 210520Z 24009KT CAVOK 00/M01 Q1040 NOSIG
EDDT 210450Z 25006KT CAVOK M00/M01 Q1041 NOSIG
EDDT 210420Z 25008KT CAVOK 00/M01 Q1041 NOSIG
EDDT 210350Z 24006KT 210V270 CAVOK 01/M01 Q1041 NOSIG